Time;durP1;ratioP1;P1;durP2;ratioP2;P2;SDS_P1;SDS_P2;PMS_P1;PMS_P2;Temp;Humidity;BMP_temperature;BMP_pressure;BME280_temperature;BME280_humidity;BME280_pressure;Samples;Min_cycle;Max_cycle;Signal;HPM_P1;HPM_P2
2022/07/26 00:00:16;;;;;;;1.57;0.67;;;;;;;19.08;62.80;100003.19;5052230;28;19916;-80
2022/07/26 00:02:42;;;;;;;2.22;0.70;;;;;;;19.00;63.35;100010.69;5054687;28;20369;-80
2022/07/26 00:05:08;;;;;;;1.90;0.90;;;;;;;18.81;63.77;100011.88;5056046;28;20052;-79
2022/07/26 00:07:33;;;;;;;2.05;0.75;;;;;;;18.74;64.21;100006.31;5056230;28;20025;-80
2022/07/26 00:09:58;;;;;;;;;;;;;;;18.69;64.39;100011.44;5056932;28;20445;-79
2022/07/26 00:12:24;;;;;;;1.87;0.60;;;;;;;18.56;64.76;100013.75;5055824;28;19919;-80
2022/07/26 00:14:49;;;;;;;;;;;;;;;18.54;64.91;100010.59;5056164;28;20325;-79
2022/07/26 00:17:15;;;;;;;1.23;0.77;;;;;;;18.49;65.20;100008.25;5055828;28;19932;-80
2022/07/26 00:19:40;;;;;;;;;;;;;;;18.43;65.29;100002.28;5056283;28;20275;-81
2022/07/26 00:24:49;;;;;;;3.00;0.80;;;;;;;18.37;65.69;100003.09;5055824;28;20383;-79
2022/07/26 00:27:14;;;;;;;1.55;0.60;;;;;;;18.40;65.62;100010.56;5055405;28;20104;-81
2022/07/26 00:29:39;;;;;;;;;;;;;;;18.27;66.25;99999.88;5056477;28;20024;-81
2022/07/26 00:32:05;;;;;;;1.52;0.75;;;;;;;18.20;66.53;100007.34;5055795;28;20410;-80
2022/07/26 00:34:30;;;;;;;;;;;;;;;18.30;66.15;100012.09;5055874;28;20043;-80
2022/07/26 00:36:55;;;;;;;3.50;0.82;;;;;;;18.21;66.54;100004.22;5055400;28;19912;-80
2022/07/26 00:39:21;;;;;;;;;;;;;;;18.20;66.50;100007.34;5055916;28;20078;-80
2022/07/26 00:41:46;;;;;;;3.90;1.00;;;;;;;18.30;66.39;100003.84;5055199;28;19988;-80
2022/07/26 00:44:11;;;;;;;;;;;;;;;18.13;66.98;100001.81;5055603;28;20373;-80
2022/07/26 00:46:40;;;;;;;2.33;0.80;;;;;;;18.03;67.36;99997.84;5055290;28;19913;-80
2022/07/26 00:49:07;;;;;;;1.92;0.68;;;;;;;17.98;67.69;100003.75;5054965;28;20256;-80
2022/07/26 00:51:32;;;;;;;3.30;0.85;;;;;;;17.92;68.03;100002.53;5055260;28;20052;-80
2022/07/26 00:53:57;;;;;;;;;;;;;;;17.93;67.79;99995.84;5055829;28;20064;-81
2022/07/26 00:56:24;;;;;;;2.38;1.00;;;;;;;18.03;67.50;100008.88;5055120;28;19951;-81
2022/07/26 00:58:50;;;;;;;3.38;0.88;;;;;;;17.91;68.04;100003.69;5055129;28;20033;-80
2022/07/26 01:01:15;;;;;;;;;;;;;;;17.93;67.89;100010.41;5055978;28;20036;-82
2022/07/26 01:03:40;;;;;;;3.00;1.05;;;;;;;17.78;68.79;100007.94;5054977;28;19958;-80
2022/07/26 01:06:06;;;;;;;;;;;;;;;18.09;67.54;100007.31;5055620;28;20060;-81
2022/07/26 01:08:32;;;;;;;3.38;1.10;;;;;;;17.89;68.38;100003.28;5054878;28;19916;-80
2022/07/26 01:10:57;;;;;;;;;;;;;;;17.70;69.28;100004.38;5055141;28;20036;-82
2022/07/26 01:13:22;;;;;;;3.25;0.80;;;;;;;17.67;69.49;100003.16;5054237;28;19920;-81
2022/07/26 01:15:48;;;;;;;;;;;;;;;17.64;69.57;100003.16;5054524;28;20041;-81
2022/07/26 01:18:13;;;;;;;2.60;1.10;;;;;;;17.62;69.51;100003.50;5055042;28;19919;-81
2022/07/26 01:20:39;;;;;;;;;;;;;;;17.61;69.56;100007.44;5055175;28;20476;-81
2022/07/26 01:23:06;;;;;;;4.15;1.00;;;;;;;17.68;69.19;100002.03;5054579;28;19917;-81
2022/07/26 01:25:34;;;;;;;4.25;1.05;;;;;;;17.62;69.03;100006.25;5054933;28;20064;-82
2022/07/26 01:28:00;;;;;;;2.08;0.85;;;;;;;17.54;69.51;100001.91;5054712;28;20025;-83
2022/07/26 01:30:25;;;;;;;;;;;;;;;17.56;69.45;100004.28;5054916;28;20090;-82
2022/07/26 01:32:51;;;;;;;5.70;1.10;;;;;;;17.53;69.39;99997.56;5054628;28;19955;-81
2022/07/26 01:35:16;;;;;;;;;;;;;;;17.65;69.06;100005.53;5054684;28;20056;-82
2022/07/26 01:37:41;;;;;;;1.03;0.60;;;;;;;17.60;69.40;99994.06;5054592;28;19974;-82
2022/07/26 01:40:07;;;;;;;;;;;;;;;17.53;69.77;99997.56;5054921;28;20299;-82
2022/07/26 01:42:32;;;;;;;6.18;1.02;;;;;;;17.55;69.59;100002.69;5054881;28;20254;-82
2022/07/26 01:44:58;;;;;;;;;;;;;;;17.50;70.05;100000.31;5054659;28;20033;-82
2022/07/26 01:47:23;;;;;;;3.83;0.80;;;;;;;17.55;69.76;100002.69;5054368;28;19913;-81
2022/07/26 01:49:48;;;;;;;;;;;;;;;17.52;70.12;100000.72;5054462;28;20390;-81
2022/07/26 01:52:14;;;;;;;4.40;1.00;;;;;;;17.50;70.33;100003.84;5054194;28;19940;-81
2022/07/26 01:54:39;;;;;;;;;;;;;;;17.53;70.24;100000.31;5054758;28;20098;-83
2022/07/26 01:57:04;;;;;;;;;;;;;;;17.45;70.58;100002.22;5053452;28;19963;-83
2022/07/26 01:59:29;;;;;;;;;;;;;;;17.46;70.79;100000.25;5054429;28;20044;-82
2022/07/26 02:01:54;;;;;;;;;;;;;;;17.48;70.69;100003.44;5054651;28;19971;-81
2022/07/26 02:07:03;;;;;;;;;;;;;;;17.47;70.88;100007.38;5054864;28;19920;-82
2022/07/26 02:09:28;;;;;;;;;;;;;;;17.51;70.87;100010.16;5054036;28;19912;-81
2022/07/26 02:11:54;;;;;;;;;;;;;;;17.57;70.48;100006.63;5053241;28;19924;-81
2022/07/26 02:14:19;;;;;;;;;;;;;;;17.58;70.77;100010.19;5054414;28;20347;-82
2022/07/26 02:16:44;;;;;;;;;;;;;;;17.76;70.00;100011.09;5054204;28;19913;-81
2022/07/26 02:19:09;;;;;;;;;;;;;;;17.71;70.12;100014.22;5054267;28;20384;-82
2022/07/26 02:21:34;;;;;;;;;;;;;;;17.65;70.25;100010.25;5054036;28;19924;-82
2022/07/26 02:24:00;;;;;;;;;;;;;;;17.66;70.44;100015.34;5053817;28;20372;-80
2022/07/26 02:26:25;;;;;;;;;;;;;;;17.67;70.17;100005.91;5053708;28;19962;-82
2022/07/26 02:28:50;;;;;;;;;;;;;;;17.55;70.71;100006.22;5053907;28;20439;-83
2022/07/26 02:31:15;;;;;;;;;;;;;;;17.58;70.44;100015.69;5053994;28;19928;-83
2022/07/26 02:33:40;;;;;;;;;;;;;;;17.49;70.84;100013.28;5054069;28;19913;-81
2022/07/26 02:36:06;;;;;;;;;;;;;;;17.49;70.82;100007.78;5054158;28;19923;-82
2022/07/26 02:38:31;;;;;;;;;;;;;;;17.48;70.86;100011.72;5053784;28;20283;-82
2022/07/26 02:40:56;;;;;;;;;;;;;;;17.44;71.27;100010.88;5054009;28;20352;-83
2022/07/26 02:43:21;;;;;;;;;;;;;;;17.42;71.29;100004.97;5053652;28;19913;-83
2022/07/26 02:45:46;;;;;;;;;;;;;;;17.40;71.38;100010.06;5053554;28;19912;-83
2022/07/26 02:48:12;;;;;;;;;;;;;;;17.38;71.70;100015.16;5053469;28;20073;-82
2022/07/26 02:50:37;;;;;;;;;;;;;;;17.48;71.53;100011.72;5053878;28;20257;-82
2022/07/26 02:53:03;;;;;;;;;;;;;;;17.47;71.38;100014.81;5053884;28;19951;-81
2022/07/26 02:55:28;;;;;;;;;;;;;;;17.40;71.73;100016.34;5053694;28;19922;-82
2022/07/26 02:57:53;;;;;;;;;;;;;;;17.49;71.45;100015.25;5053399;28;19912;-82
2022/07/26 03:00:20;;;;;;;;;;;;;;;17.41;71.81;100019.91;5053608;28;19913;-82
2022/07/26 03:02:47;;;;;;;;;;;;;;;17.37;72.19;100021.84;5053443;28;19916;-81
2022/07/26 03:05:13;;;;;;;;;;;;;;;17.31;72.27;100023.38;5053652;28;19924;-82
2022/07/26 03:07:38;;;;;;;;;;;;;;;17.29;72.47;100031.22;5053260;28;19916;-82
2022/07/26 03:10:03;;;;;;;;;;;;;;;17.31;72.70;100031.66;5053635;28;20414;-82
2022/07/26 03:12:29;;;;;;;;;;;;;;;17.36;72.58;100023.03;5053471;28;19920;-82
2022/07/26 03:14:54;;;;;;;;;;;;;;;17.30;73.00;100032.78;5053277;28;19957;-81
2022/07/26 03:17:19;;;;;;;;;;;;;;;17.30;73.22;100035.53;5053561;28;19919;-81
2022/07/26 03:19:45;;;;;;;;;;;;;;;17.29;73.10;100036.72;5053816;28;19913;-81
2022/07/26 03:22:10;;;;;;;;;;;;;;;17.42;72.47;100035.25;5053354;28;19917;-81
2022/07/26 03:24:36;;;;;;;;;;;;;;;17.30;73.18;100030.03;5053451;28;19917;-80
2022/07/26 03:27:01;;;;;;;;;;;;;;;17.30;73.25;100032.78;5053240;28;19920;-80
2022/07/26 03:29:26;;;;;;;;;;;;;;;17.30;73.23;100036.34;5053923;28;19921;-81
2022/07/26 03:31:51;;;;;;;;;;;;;;;17.24;73.42;100035.13;5052988;28;19912;-80
2022/07/26 03:34:17;;;;;;;;;;;;;;;17.23;73.38;100041.78;5053071;28;20283;-79
2022/07/26 03:36:45;;;;;;;;;;;;;;;17.23;73.41;100038.25;5054152;28;19960;-80
2022/07/26 03:39:10;;;;;;;;;;;;;;;17.28;73.31;100041.44;5056924;28;19912;-82
2022/07/26 03:41:36;;;;;;;;;;;;;;;17.26;73.57;100042.97;5057409;28;19978;-79
2022/07/26 03:44:01;;;;;;;;;;;;;;;17.49;72.75;100048.28;5057067;28;19951;-81
2022/07/26 03:46:26;;;;;;;;;;;;;;;17.33;73.01;100048.56;5056646;28;19920;-80
2022/07/26 03:48:51;;;;;;;;;;;;;;;17.25;73.50;100052.41;5057107;28;20291;-81
2022/07/26 03:51:16;;;;;;;;;;;;;;;17.16;74.78;100051.97;5057115;28;19920;-84
2022/07/26 03:53:42;;;;;;;;;;;;;;;17.08;76.14;100051.88;5057639;28;19913;-82
2022/07/26 03:58:51;;;;;;;;;;;;;;;17.02;78.82;100060.88;5056949;28;19999;-81
2022/07/26 04:01:16;;;;;;;;;;;;;;;16.89;78.89;100063.09;5055677;28;19920;-81
2022/07/26 04:03:41;;;;;;;;;;;;;;;16.78;79.28;100067.69;5056764;28;20379;-81
2022/07/26 04:06:07;;;;;;;;;;;;;;;16.79;79.59;100074.78;5055069;28;20348;-81
2022/07/26 04:08:32;;;;;;;;;;;;;;;16.65;79.40;100080.13;5056664;28;19913;-81
2022/07/26 04:10:58;;;;;;;;;;;;;;;16.92;79.20;100070.59;5056781;28;19913;-80
2022/07/26 04:13:23;;;;;;;;;;;;;;;16.78;79.15;100078.69;5056430;28;19952;-80
2022/07/26 04:15:49;;;;;;;;;;;;;;;16.66;79.56;100082.50;5056420;28;19912;-80
2022/07/26 04:18:14;;;;;;;;;;;;;;;16.64;79.64;100084.81;5056253;28;19979;-81
2022/07/26 04:20:39;;;;;;;;;;;;;;;16.63;79.52;100076.94;5056515;28;19927;-80
2022/07/26 04:23:05;;;;;;;;;;;;;;;16.64;79.79;100084.03;5056252;28;20431;-80
2022/07/26 04:25:30;;;;;;;;;;;;;;;16.62;80.08;100086.34;5056345;28;20027;-81
2022/07/26 04:27:55;;;;;;;;;;;;;;;16.59;80.75;100087.09;5054977;28;20223;-81
2022/07/26 04:30:20;;;;;;;;;;;;;;;16.54;80.96;100091.78;5056120;28;20352;-82
2022/07/26 04:32:45;;;;;;;;;;;;;;;16.44;82.06;100094.38;5056128;28;19916;-82
2022/07/26 04:35:11;;;;;;;;;;;;;;;16.39;82.04;100095.53;5056773;28;19920;-81
2022/07/26 04:37:40;;;;;;;;;;;;;;;16.33;82.86;100091.53;5056466;28;19955;-81
2022/07/26 04:40:05;;;;;;;;;;;;;;;16.24;83.47;100088.25;5056643;28;19936;-82
2022/07/26 04:42:30;;;;;;;;;;;;;;;16.23;83.34;100083.94;5056094;28;20367;-81
2022/07/26 04:44:56;;;;;;;;;;;;;;;16.14;84.11;100089.72;5056978;28;19921;-83
2022/07/26 04:47:21;;;;;;;;;;;;;;;16.09;85.04;100086.50;5056356;28;19913;-81
2022/07/26 04:49:46;;;;;;;;;;;;;;;15.99;85.15;100078.91;5055029;28;19920;-81
2022/07/26 04:52:11;;;;;;;;;;;;;;;15.99;85.72;100093.44;5054863;28;20267;-81
2022/07/26 04:54:36;;;;;;;;;;;;;;;15.90;86.11;100084.66;5055586;28;20379;-81
2022/07/26 04:57:02;;;;;;;;;;;;;;;15.88;86.01;100093.28;5055941;28;20003;-82
2022/07/26 04:59:27;;;;;;;;;;;;;;;15.95;86.04;100090.63;5055909;28;19917;-81
2022/07/26 05:01:52;;;;;;;;;;;;;;;15.90;86.53;100096.44;5055598;28;19912;-81
2022/07/26 05:04:17;;;;;;;;;;;;;;;15.89;86.60;100100.34;5055007;28;19913;-81
2022/07/26 05:06:43;;;;;;;;;;;;;;;15.95;86.55;100106.31;5055457;28;19912;-81
2022/07/26 05:09:09;;;;;;;;;;;;;;;15.91;86.81;100095.28;5055355;28;19912;-81
2022/07/26 05:11:34;;;;;;;;;;;;;;;15.95;86.23;100098.84;5055353;28;19994;-81
2022/07/26 05:13:59;;;;;;;;;;;;;;;16.01;86.17;100099.34;5055174;28;20398;-81
2022/07/26 05:16:25;;;;;;;;;;;;;;;16.02;85.66;100100.94;5055019;28;19970;-81
2022/07/26 05:18:50;;;;;;;;;;;;;;;16.06;85.67;100101.75;5055239;28;19912;-81
2022/07/26 05:21:16;;;;;;;;;;;;;;;16.07;85.30;100108.06;5055059;28;19967;-82
2022/07/26 05:23:41;;;;;;;;;;;;;;;16.09;84.90;100100.22;5054893;28;19913;-82
2022/07/26 05:26:07;;;;;;;;;;;;;;;16.19;84.81;100107.81;5055091;28;20264;-81
2022/07/26 05:28:32;;;;;;;;;;;;;;;16.20;84.87;100109.41;5053801;28;19912;-80
2022/07/26 05:30:57;;;;;;;;;;;;;;;16.19;84.74;100094.09;5055110;28;19978;-80
2022/07/26 05:33:22;;;;;;;;;;;;;;;16.31;84.15;100099.34;5054895;28;20388;-80
2022/07/26 05:35:47;;;;;;;;;;;;;;;16.33;83.96;100097.03;5054901;28;19917;-81
2022/07/26 05:38:13;;;;;;;;;;;;;;;16.42;83.88;100096.72;5054853;28;19912;-81
2022/07/26 05:40:38;;;;;;;;;;;;;;;16.43;83.60;100093.59;5054570;28;19913;-80
2022/07/26 05:43:03;;;;;;;;;;;;;;;16.42;83.80;100097.50;5054678;28;20261;-79
2022/07/26 05:45:28;;;;;;;;;;;;;;;16.41;83.63;100097.88;5054370;28;19948;-80
2022/07/26 05:47:54;;;;;;;;;;;;;;;16.45;83.49;100099.50;5054300;28;20436;-81
2022/07/26 05:50:19;;;;;;;;;;;;;;;16.53;83.81;100101.19;5054788;28;20261;-81
2022/07/26 05:52:45;;;;;;;;;;;;;;;16.55;83.17;100096.09;5054685;28;20367;-81
2022/07/26 05:55:10;;;;;;;;;;;;;;;16.57;83.11;100097.69;5054732;28;20305;-80
2022/07/26 05:57:35;;;;;;;;;;;;;;;16.60;83.02;100103.22;5053213;28;20276;-80
2022/07/26 06:00:00;;;;;;;;;;;;;;;16.65;82.23;100099.38;5053706;28;19913;-81
2022/07/26 06:02:26;;;;;;;;;;;;;;;16.93;81.83;100102.44;5053911;28;19917;-81
2022/07/26 06:04:51;;;;;;;;;;;;;;;16.92;82.00;100105.56;5053571;28;19917;-81
2022/07/26 06:07:16;;;;;;;;;;;;;;;16.86;82.43;100107.88;5053931;28;19923;-80
2022/07/26 06:09:42;;;;;;;;;;;;;;;17.07;81.37;100105.31;5053864;28;19919;-80
2022/07/26 06:12:07;;;;;;;;;;;;;;;17.22;80.70;100110.97;5054526;28;19999;-79
2022/07/26 06:14:32;;;;;;;;;;;;;;;17.21;80.34;100112.13;5053835;28;19912;-79
2022/07/26 06:16:57;;;;;;;;;;;;;;;17.35;79.71;100106.75;5053776;28;19920;-80
2022/07/26 06:19:23;;;;;;;;;;;;;;;17.51;79.98;100110.03;5053582;28;19912;-80
2022/07/26 06:21:48;;;;;;;;;;;;;;;17.69;79.14;100107.44;5053900;28;19913;-79
2022/07/26 06:24:13;;;;;;;;;;;;;;;17.65;78.88;100110.16;5052501;28;19913;-79
2022/07/26 06:26:38;;;;;;;;;;;;;;;17.67;78.90;100109.75;5053533;28;19935;-79
2022/07/26 06:29:04;;;;;;;;;;;;;;;17.85;78.26;100107.16;5053710;28;20322;-79
2022/07/26 06:31:29;;;;;;;;;;;;;;;17.79;78.22;100117.72;5053374;28;20280;-78
2022/07/26 06:33:54;;;;;;;;;;;;;;;17.71;78.86;100116.91;5053962;28;19919;-78
2022/07/26 06:36:19;;;;;;;;;;;;;;;17.77;78.29;100116.53;5053181;28;19912;-79
2022/07/26 06:38:45;;;;;;;;;;;;;;;17.78;78.26;100118.09;5052972;28;19913;-78
2022/07/26 06:41:25;;;;;;;;;;;;;;;17.94;77.28;100115.84;5019987;28;19927;-79
2022/07/26 06:43:50;;;;;;;;;;;;;;;17.95;77.51;100111.91;5052097;28;19912;-80
2022/07/26 06:46:15;;;;;;;;;;;;;;;17.88;77.92;100123.69;5051993;28;19912;-80
2022/07/26 06:48:41;;;;;;;;;;;;;;;17.95;77.89;100132.00;5053382;28;19959;-79
2022/07/26 06:51:08;;;;;;;;;;;;;;;18.29;76.78;100129.81;5053486;28;19923;-79
2022/07/26 06:53:34;;;;;;;;;;;;;;;18.33;76.56;100135.38;5053326;28;19913;-80
2022/07/26 06:55:59;;;;;;;;;;;;;;;18.39;75.95;100131.06;5053011;28;20280;-80
2022/07/26 06:58:24;;;;;;;;;;;;;;;18.54;75.90;100140.19;5052953;28;19974;-80
2022/07/26 07:00:50;;;;;;;;;;;;;;;18.86;74.12;100135.59;5053407;28;20003;-79
2022/07/26 07:03:15;;;;;;;;;;;;;;;18.67;74.63;100143.44;5052913;28;19912;-80
2022/07/26 07:05:41;;;;;;;;;;;;;;;18.56;74.73;100143.34;5052968;28;19917;-80
2022/07/26 07:08:06;;;;;;;;;;;;;;;18.68;74.87;100151.31;5052549;28;20334;-80
2022/07/26 07:10:31;;;;;;;;;;;;;;;18.97;73.61;100146.66;5052387;28;19912;-79
2022/07/26 07:12:57;;;;;;;;;;;;;;;19.02;73.33;100157.31;5051160;28;19942;-79
2022/07/26 07:15:22;;;;;;;;;;;;;;;19.29;72.81;100151.44;5053146;28;20221;-80
2022/07/26 07:17:47;;;;;;;;;;;;;;;19.59;72.16;100151.09;5052899;28;19919;-79
2022/07/26 07:20:12;;;;;;;;;;;;;;;19.90;70.49;100141.22;5052365;28;19963;-81
2022/07/26 07:22:37;;;;;;;;;;;;;;;19.93;70.50;100148.72;5052452;28;19967;-81
2022/07/26 07:25:03;;;;;;;;;;;;;;;19.80;71.11;100140.03;5052770;28;20386;-81
2022/07/26 07:27:28;;;;;;;;;;;;;;;19.50;71.82;100157.00;5051646;28;19924;-82
2022/07/26 07:29:53;;;;;;;;;;;;;;;19.66;70.96;100145.59;5053271;28;19966;-80
2022/07/26 07:32:18;;;;;;;;;;;;;;;19.82;71.53;100151.50;5052987;28;19917;-80
2022/07/26 07:34:44;;;;;;;;;;;;;;;19.31;71.78;100163.66;5053065;28;19912;-82
2022/07/26 07:37:11;;;;;;;;;;;;;;;19.14;73.20;100164.44;5052545;28;19923;-80
2022/07/26 07:39:37;;;;;;;;;;;;;;;19.26;72.46;100166.81;5052556;28;20368;-82
2022/07/26 07:42:02;;;;;;;;;;;;;;;19.22;72.49;100166.03;5052468;28;19938;-81
2022/07/26 07:44:27;;;;;;;;;;;;;;;19.51;71.97;100162.13;5052729;28;20006;-79
2022/07/26 07:46:53;;;;;;;;;;;;;;;19.72;71.08;100164.13;5052211;28;20002;-80
2022/07/26 07:49:18;;;;;;;;;;;;;;;19.74;70.66;100166.50;5052660;28;19947;-79
2022/07/26 07:51:44;;;;;;;;;;;;;;;19.72;70.06;100163.34;5052488;28;19919;-81
2022/07/26 07:54:09;;;;;;;;;;;;;;;19.60;71.40;100180.31;5052775;28;19923;-79
2022/07/26 07:56:34;;;;;;;;;;;;;;;19.59;71.06;100178.72;5051358;28;19912;-79
2022/07/26 07:59:01;;;;;;;;;;;;;;;19.07;72.69;100180.97;5052792;28;19916;-79
2022/07/26 08:01:26;;;;;;;;;;;;;;;19.60;71.01;100188.59;5051133;28;19913;-79
2022/07/26 08:03:51;;;;;;;;;;;;;;;19.45;70.89;100179.47;5052133;28;19943;-78
2022/07/26 08:06:16;;;;;;;;;;;;;;;19.53;70.84;100179.09;5052746;28;19924;-78
2022/07/26 08:08:42;;;;;;;;;;;;;;;19.67;69.82;100180.31;5052597;28;20330;-77
2022/07/26 08:11:07;;;;;;;;;;;;;;;19.60;69.75;100180.31;5052860;28;20330;-79
2022/07/26 08:13:32;;;;;;;;;;;;;;;19.56;69.80;100187.81;5052263;28;19913;-78
2022/07/26 08:15:58;;;;;;;;;;;;;;;19.68;68.99;100185.44;5052015;28;20003;-79
2022/07/26 08:18:23;;;;;;;;;;;;;;;19.79;68.29;100171.63;5050846;28;19963;-79
2022/07/26 08:20:48;;;;;;;;;;;;;;;20.10;68.13;100164.47;5052121;28;19913;-78
2022/07/26 08:23:14;;;;;;;;;;;;;;;20.18;67.41;100165.25;5053736;28;19912;-82
2022/07/26 08:25:39;;;;;;;;;;;;;;;20.16;68.01;100164.88;5054744;28;19923;-78
2022/07/26 08:28:04;;;;;;;;;;;;;;;20.08;68.05;100161.31;5055619;28;19920;-80
2022/07/26 08:30:30;;;;;;;;;;;;;;;20.06;68.22;100170.00;5054739;28;19928;-80
2022/07/26 08:32:55;;;;;;;;;;;;;;;20.07;68.44;100176.34;5054355;28;19913;-82
2022/07/26 08:35:20;;;;;;;;;;;;;;;20.38;67.43;100174.69;5056001;28;19960;-82
2022/07/26 08:37:46;;;;;;;;;;;;;;;20.31;66.54;100164.41;5054919;28;19948;-80
2022/07/26 08:40:12;;;;;;;;;;;;;;;20.04;67.57;100172.41;5055908;28;19966;-80
2022/07/26 08:42:37;;;;;;;;;;;;;;;20.08;67.21;100172.38;5056802;28;19916;-80
2022/07/26 08:45:03;;;;;;;;;;;;;;;20.04;67.32;100175.16;5056437;28;19979;-77
2022/07/26 08:47:28;;;;;;;;;;;;;;;19.93;66.79;100182.66;5056648;28;20280;-80
2022/07/26 08:49:53;;;;;;;;;;;;;;;19.96;66.31;100170.03;5055489;28;19913;-80
2022/07/26 08:52:18;;;;;;;;;;;;;;;19.77;67.26;100185.03;5055349;28;19912;-82
2022/07/26 08:54:45;;;;;;;;;;;;;;;19.87;67.63;100187.03;5055026;28;19963;-82
2022/07/26 08:57:10;;;;;;;;;;;;;;;19.65;68.19;100191.75;5055144;28;20265;-81
2022/07/26 08:59:36;;;;;;;;;;;;;;;19.56;68.81;100196.09;5055562;28;20038;-83
2022/07/26 09:02:05;;;;;;;;;;;;;;;19.60;68.19;100191.34;5055249;28;19913;-78
2022/07/26 09:04:32;;;;;;;;;;;;;;;19.81;67.20;100186.59;5054507;28;19990;-80
2022/07/26 09:06:57;;;;;;;;;;;;;;;19.85;66.27;100189.38;5054568;28;19921;-80
2022/07/26 09:09:23;;;;;;;;;;;;;;;20.38;64.78;100194.03;5054636;28;19920;-80
2022/07/26 09:11:48;;;;;;;;;;;;;;;20.57;64.17;100185.31;5054957;28;19912;-80
2022/07/26 09:14:13;;;;;;;;;;;;;;;20.83;62.58;100183.25;5055181;28;19919;-81
2022/07/26 09:16:39;;;;;;;;;;;;;;;20.85;62.05;100189.16;5055380;28;19939;-84
2022/07/26 09:19:17;;;;;;;;;;;;;;;20.73;62.03;100195.94;5053971;28;20007;-79
2022/07/26 09:21:43;;;;;;;;;;;;;;;20.56;63.26;100200.34;5055956;28;20368;-82
2022/07/26 09:24:08;;;;;;;;;;;;;;;20.15;66.00;100205.53;5055691;28;19963;-84
2022/07/26 09:26:34;;;;;;;;;;;;;;;19.78;68.17;100211.47;5054222;28;19913;-80
2022/07/26 09:29:11;;;;;;;;;;;;;;;19.61;69.12;100213.03;5054688;28;19916;-81
2022/07/26 09:31:37;;;;;;;;;;;;;;;19.50;70.25;100215.00;5054947;28;19939;-81
2022/07/26 09:34:03;;;;;;;;;;;;;;;19.61;70.82;100209.50;5054095;28;19931;-80
2022/07/26 09:36:28;;;;;;;;;;;;;;;19.75;70.17;100203.97;5055813;28;19913;-81
2022/07/26 09:38:57;;;;;;;;;;;;;;;19.90;68.99;100219.38;5054586;28;20368;-80
2022/07/26 09:41:22;;;;;;;;;;;;;;;20.13;68.21;100205.91;5055168;28;19912;-81
2022/07/26 09:43:48;;;;;;;;;;;;;;;20.43;66.85;100201.94;5054934;28;20373;-81
2022/07/26 09:46:13;;;;;;;;;;;;;;;20.61;66.03;100199.91;5055191;28;19988;-78
2022/07/26 09:48:38;;;;;;;;;;;;;;;20.57;66.35;100204.69;5054520;28;20282;-82
2022/07/26 09:51:07;;;;;;;;;;;;;;;20.54;65.77;100204.69;5054834;28;19917;-81
2022/07/26 09:53:39;;;;;;;;;;;;;;;20.77;63.48;100206.97;5054463;28;20007;-81
2022/07/26 09:56:04;;;;;;;;;;;;;;;20.82;61.87;100192.72;5054535;28;20040;-81
2022/07/26 09:58:29;;;;;;;;;;;;;;;20.88;61.27;100193.91;5053965;28;19913;-79
2022/07/26 10:00:54;;;;;;;;;;;;;;;20.78;59.76;100203.81;5053942;28;20379;-78
2022/07/26 10:03:20;;;;;;;;;;;;;;;20.96;59.73;100198.19;5053929;28;20370;-79
2022/07/26 10:05:45;;;;;;;;;;;;;;;21.27;58.62;100202.78;5052624;28;19916;-80
2022/07/26 10:08:11;;;;;;;;;;;;;;;21.35;59.83;100208.31;5053441;28;19917;-77
2022/07/26 10:10:45;;;;;;;;;;;;;;;21.04;60.15;100202.50;5053685;28;20008;-79
2022/07/26 10:13:10;;;;;;;;;;;;;;;21.15;60.10;100211.53;5053920;28;19917;-79
2022/07/26 10:15:37;;;;;;;;;;;;;;;21.10;60.54;100211.19;5053720;28;20356;-78
2022/07/26 10:18:03;;;;;;;;;;;;;;;20.88;60.80;100207.72;5052269;28;19951;-82
2022/07/26 10:20:42;;;;;;;;;;;;;;;20.86;59.02;100216.44;5054474;28;19920;-78
2022/07/26 10:23:26;;;;;;;;;;;;;;;20.91;58.88;100218.78;5053534;28;19912;-79
2022/07/26 10:25:51;;;;;;;;;;;;;;;20.84;59.59;100218.81;5053808;28;19924;-80
2022/07/26 10:28:25;;;;;;;;;;;;;;;21.03;59.63;100221.09;5054079;28;19921;-78
2022/07/26 10:30:50;;;;;;;;;;;;;;;21.27;58.96;100224.16;5055826;28;19913;-80
2022/07/26 10:33:17;;;;;;;;;;;;;;;20.70;60.79;100236.25;5055455;28;20377;-79
2022/07/26 10:35:42;;;;;;;;;;;;;;;19.75;65.17;100239.91;5054662;28;19917;-80
2022/07/26 10:38:16;;;;;;;;;;;;;;;19.39;66.87;100250.88;5053631;28;20016;-79
2022/07/26 10:40:58;;;;;;;;;;;;;;;19.14;68.36;100247.22;5053247;28;19951;-78
2022/07/26 10:43:24;;;;;;;;;;;;;;;19.15;68.55;100248.84;5052974;28;19912;-82
2022/07/26 10:46:09;;;;;;;;;;;;;;;19.43;68.38;100243.38;5053327;28;20265;-78
2022/07/26 10:48:53;;;;;;;;;;;;;;;19.37;68.64;100258.75;5053030;28;19912;-78
2022/07/26 10:51:32;;;;;;;;;;;;;;;19.24;69.32;100263.84;5051742;28;19913;-79
2022/07/26 10:54:08;;;;;;;;;;;;;;;19.29;69.39;100270.94;5053055;28;19920;-79
2022/07/26 10:56:33;;;;;;;;;;;;;;;19.24;69.43;100263.03;5053179;28;19913;-78
2022/07/26 10:58:58;;;;;;;;;;;;;;;19.11;69.40;100270.88;5053271;28;19924;-81
2022/07/26 11:01:41;;;;;;;;;;;;;;;18.90;70.75;100279.06;5053078;28;19920;-79
2022/07/26 11:04:19;;;;;;;;;;;;;;;19.04;70.62;100289.38;5052973;28;19913;-79
2022/07/26 11:06:46;;;;;;;;;;;;;;;19.09;69.51;100291.75;5053315;28;20007;-78
2022/07/26 11:09:11;;;;;;;;;;;;;;;18.89;70.08;100286.56;5053598;28;19923;-79
2022/07/26 11:11:37;;;;;;;;;;;;;;;19.00;70.24;100294.91;5053750;28;19916;-79
2022/07/26 11:14:06;;;;;;;;;;;;;;;19.02;70.75;100289.00;5053911;28;19913;-79
2022/07/26 11:16:39;;;;;;;;;;;;;;;19.09;70.95;100294.53;5053301;28;19917;-79
2022/07/26 11:19:17;;;;;;;;;;;;;;;19.09;71.08;100297.28;5051990;28;20288;-78
2022/07/26 11:21:44;;;;;;;;;;;;;;;19.18;71.18;100301.28;5053313;28;19982;-79
2022/07/26 11:24:09;;;;;;;;;;;;;;;19.19;71.06;100308.38;5053546;28;20291;-78
2022/07/26 11:26:41;;;;;;;;;;;;;;;19.49;70.26;100308.09;5053207;28;19913;-79
2022/07/26 11:29:06;;;;;;;;;;;;;;;19.77;68.95;100301.06;5053121;28;19980;-79
2022/07/26 11:31:39;;;;;;;;;;;;;;;19.87;68.27;100305.84;5052754;28;19925;-82
2022/07/26 11:34:05;;;;;;;;;;;;;;;19.99;68.18;100313.75;5052981;28;20010;-79
2022/07/26 11:36:32;;;;;;;;;;;;;;;19.60;69.32;100310.09;5052891;28;19912;-78
2022/07/26 11:38:57;;;;;;;;;;;;;;;19.43;69.95;100317.13;5053420;28;19917;-79
2022/07/26 11:41:24;;;;;;;;;;;;;;;19.66;68.51;100314.09;5052950;28;19913;-79
2022/07/26 11:43:50;;;;;;;;;;;;;;;19.88;68.17;100312.94;5052692;28;19982;-80
2022/07/26 11:46:15;;;;;;;;;;;;;;;20.04;67.70;100310.59;5053145;28;19916;-80
2022/07/26 11:48:44;;;;;;;;;;;;;;;20.12;66.59;100314.91;5052833;28;19919;-79
2022/07/26 11:51:11;;;;;;;;;;;;;;;20.25;66.35;100309.00;5053021;28;19919;-80
2022/07/26 11:53:36;;;;;;;;;;;;;;;20.13;65.64;100313.72;5051273;28;19913;-80
2022/07/26 11:56:09;;;;;;;;;;;;;;;19.82;66.11;100317.28;5051247;28;19970;-83
2022/07/26 11:58:34;;;;;;;;;;;;;;;19.74;65.60;100308.16;5054989;28;20388;-81
2022/07/26 12:01:07;;;;;;;;;;;;;;;20.11;63.25;100316.09;5056671;28;19919;-80
2022/07/26 12:03:35;;;;;;;;;;;;;;;20.16;62.64;100312.19;5056356;28;20367;-81
2022/07/26 12:06:11;;;;;;;;;;;;;;;20.50;61.62;100309.81;5056396;28;19916;-79
2022/07/26 12:08:37;;;;;;;;;;;;;;;21.16;60.68;100290.63;5056549;28;19952;-78
2022/07/26 12:11:03;;;;;;;;;;;;;;;21.77;58.74;100302.22;5056311;28;19919;-79
2022/07/26 12:13:28;;;;;;;;;;;;;;;21.91;57.79;100296.56;5055474;28;20003;-80
2022/07/26 12:15:54;;;;;;;;;;;;;;;21.88;58.21;100307.69;5056184;28;19913;-80
2022/07/26 12:18:29;;;;;;;;;;;;;;;21.43;58.53;100309.53;5055994;28;19966;-80
2022/07/26 12:20:59;;;;;;;;;;;;;;;21.68;58.80;100315.75;5056225;28;20355;-79
2022/07/26 12:23:24;;;;;;;;;;;;;;;21.56;59.37;100313.44;5054639;28;19980;-77
2022/07/26 12:25:49;;;;;;;;;;;;;;;21.34;60.71;100323.84;5056441;28;19913;-79
2022/07/26 12:28:14;;;;;;;;;;;;;;;21.19;60.99;100316.75;5056032;28;19955;-80
2022/07/26 12:30:40;;;;;;;;;;;;;;;20.99;60.55;100313.63;5055912;28;19913;-78
2022/07/26 12:33:05;;;;;;;;;;;;;;;20.67;60.96;100314.53;5055738;28;19999;-78